createdAt,value
2017-12-12T00:02:11.065Z,96253.75
2017-12-12T00:04:40.854Z,96268.11
2017-12-12T00:07:10.387Z,96280.77
2017-12-12T00:09:40.199Z,96278.48
2017-12-12T00:12:09.739Z,96275.45
2017-12-12T00:14:39.519Z,96278.09
2017-12-12T00:17:09.297Z,96307.30
2017-12-12T00:19:39.081Z,96324.65
2017-12-12T00:22:08.304Z,96325.45
2017-12-12T00:24:37.864Z,96321.86
2017-12-12T00:27:07.631Z,96323.48
2017-12-12T00:29:37.471Z,96320.66
2017-12-12T00:32:07.257Z,96334.54
2017-12-12T00:34:37.043Z,96350.41
2017-12-12T00:37:06.837Z,96371.86
2017-12-12T00:39:36.632Z,96378.94
2017-12-12T00:42:06.408Z,96392.14
2017-12-12T00:44:35.936Z,96398.41
2017-12-12T00:47:05.719Z,96387.34
2017-12-12T00:49:35.496Z,96399.06
2017-12-12T00:52:05.275Z,96407.34
2017-12-12T00:54:35.067Z,96415.73
2017-12-12T00:57:04.956Z,96412.83
2017-12-12T00:59:34.743Z,96433.77
2017-12-12T01:02:04.907Z,96438.98
2017-12-12T01:04:34.584Z,96443.66
2017-12-12T01:07:04.460Z,96448.83
2017-12-12T01:09:34.249Z,96454.73
2017-12-12T01:12:03.956Z,96459.50
2017-12-12T01:14:33.730Z,96453.09
2017-12-12T01:17:03.498Z,96466.72
2017-12-12T01:19:33.282Z,96467.91
2017-12-12T01:22:03.070Z,96474.98
2017-12-12T01:24:32.840Z,96470.58
2017-12-12T01:27:02.640Z,96486.08
2017-12-12T01:29:32.452Z,96494.85
2017-12-12T01:32:02.213Z,96494.05
2017-12-12T01:34:32.017Z,96505.78
2017-12-12T01:37:01.788Z,96513.13
2017-12-12T01:39:31.613Z,96532.22
2017-12-12T01:42:01.056Z,96525.55
2017-12-12T01:44:30.564Z,96539.41
2017-12-12T01:47:00.103Z,96558.90
2017-12-12T01:49:29.564Z,96558.09
2017-12-12T01:51:59.024Z,96573.17
2017-12-12T01:54:28.569Z,96587.31
2017-12-12T01:56:58.029Z,96591.47
2017-12-12T01:59:27.485Z,96601.61
2017-12-12T02:01:57.030Z,96611.47
2017-12-12T02:04:26.496Z,96614.29
2017-12-12T02:06:55.941Z,96606.56
2017-12-12T02:09:25.738Z,96606.96
2017-12-12T02:11:55.173Z,96617.23
2017-12-12T02:14:24.643Z,96623.91
2017-12-12T02:16:54.442Z,96634.33
2017-12-12T02:19:23.627Z,96632.31
2017-12-12T02:21:53.061Z,96635.54
2017-12-12T02:24:22.543Z,96643.64
2017-12-12T02:26:51.993Z,96641.10
2017-12-12T02:29:21.447Z,96662.20
2017-12-12T02:31:50.625Z,96669.58
2017-12-12T02:34:19.824Z,96673.18
2017-12-12T02:36:49.281Z,96671.84
2017-12-12T02:39:18.732Z,96674.36
2017-12-12T02:41:47.921Z,96679.48
2017-12-12T02:44:17.119Z,96700.45
2017-12-12T02:46:46.581Z,96715.16
2017-12-12T02:49:15.796Z,96705.69
2017-12-12T02:51:45.571Z,96709.02
2017-12-12T02:54:15.049Z,96724.69
2017-12-12T02:56:44.244Z,96735.61
2017-12-12T02:59:13.744Z,96743.91
2017-12-12T03:01:43.177Z,96755.09
2017-12-12T03:04:12.369Z,96756.45
2017-12-12T03:06:41.827Z,96759.22
2017-12-12T03:09:11.292Z,96781.80
2017-12-12T03:11:40.809Z,96788.06
2017-12-12T03:14:10.014Z,96783.86
2017-12-12T03:16:40.074Z,96791.87
2017-12-12T03:19:09.586Z,96801.98
2017-12-12T03:21:39.114Z,96815.05
2017-12-12T03:24:08.888Z,96833.64
2017-12-12T03:26:38.354Z,96832.95
2017-12-12T03:29:07.802Z,96836.59
2017-12-12T03:31:37.260Z,96838.94
2017-12-12T03:34:06.717Z,96849.88
2017-12-12T03:36:36.167Z,96855.06
2017-12-12T03:39:05.394Z,96868.91
2017-12-12T03:41:34.846Z,96875.02
2017-12-12T03:44:04.043Z,96891.07
2017-12-12T03:46:33.539Z,96885.38
2017-12-12T03:49:02.995Z,96899.02
2017-12-12T03:51:32.422Z,96915.08
2017-12-12T03:54:01.917Z,96907.25
2017-12-12T03:56:31.360Z,96920.95
2017-12-12T03:59:01.149Z,96934.16
2017-12-12T04:01:30.606Z,96940.23
2017-12-12T04:04:00.190Z,96947.41
2017-12-12T04:06:29.987Z,96958.00
2017-12-12T04:08:59.174Z,96973.22
2017-12-12T04:11:28.364Z,96973.28
2017-12-12T04:13:57.898Z,96981.27
2017-12-12T04:16:27.392Z,96980.58
2017-12-12T04:18:57.184Z,97004.44
2017-12-12T04:21:26.970Z,97003.85
2017-12-12T04:23:56.464Z,97007.37
2017-12-12T04:26:25.949Z,97015.97
2017-12-12T04:28:55.746Z,97029.67
2017-12-12T04:31:25.571Z,97032.30
2017-12-12T04:33:55.369Z,97027.84
2017-12-12T04:36:25.166Z,97042.88
2017-12-12T04:38:54.650Z,97054.30
2017-12-12T04:41:24.121Z,97063.76
2017-12-12T04:43:53.592Z,97071.84
2017-12-12T04:46:23.037Z,97082.02
2017-12-12T04:48:52.871Z,97086.02
2017-12-12T04:51:22.403Z,97083.86
2017-12-12T04:53:52.189Z,97083.05
2017-12-12T04:56:22.245Z,97090.55
2017-12-12T04:58:51.743Z,97087.06
2017-12-12T05:01:21.528Z,97089.50
2017-12-12T05:03:51.301Z,97096.81
2017-12-12T05:06:20.776Z,97115.55
2017-12-12T05:08:50.224Z,97120.00
2017-12-12T05:11:20.020Z,97122.95
2017-12-12T05:13:49.833Z,97129.45
2017-12-12T05:16:19.294Z,97137.02
2017-12-12T05:18:48.784Z,97148.12
2017-12-12T05:21:18.257Z,97151.16
2017-12-12T05:23:47.714Z,97177.59
2017-12-12T05:26:17.176Z,97175.47
2017-12-12T05:28:46.729Z,97166.32
2017-12-12T05:31:16.534Z,97166.13
2017-12-12T05:33:46.012Z,97169.81
2017-12-12T05:36:15.472Z,97172.83
2017-12-12T05:38:45.037Z,97174.52
2017-12-12T05:41:14.903Z,97188.77
2017-12-12T05:43:44.398Z,97198.16
2017-12-12T05:46:14.194Z,97196.01
2017-12-12T05:48:43.996Z,97197.23
2017-12-12T05:51:13.805Z,97207.98
2017-12-12T05:53:43.287Z,97208.39
2017-12-12T05:56:12.775Z,97219.55
2017-12-12T05:58:42.241Z,97225.30
2017-12-12T06:01:11.708Z,97218.63
2017-12-12T06:03:41.626Z,97221.81
2017-12-12T06:06:11.084Z,97215.90
2017-12-12T06:08:41.146Z,97221.72
2017-12-12T06:11:10.608Z,97212.67
2017-12-12T06:13:40.349Z,97212.59
2017-12-12T06:16:09.871Z,97215.41
2017-12-12T06:18:39.343Z,97221.55
2017-12-12T06:21:09.138Z,97218.33
2017-12-12T06:23:38.578Z,97231.59
2017-12-12T06:26:08.305Z,97221.64
2017-12-12T06:28:38.246Z,97221.53
2017-12-12T06:31:07.929Z,97217.65
2017-12-12T06:33:37.743Z,97219.37
2017-12-12T06:36:11.656Z,97223.34
2017-12-12T06:38:41.461Z,97229.92
2017-12-12T06:41:11.286Z,97246.45
2017-12-12T06:43:41.128Z,97245.44
2017-12-12T06:46:11.041Z,97238.54
2017-12-12T06:48:40.848Z,97244.83
2017-12-12T06:51:10.397Z,97231.17
2017-12-12T06:53:39.646Z,97236.48
2017-12-12T06:56:09.589Z,97240.51
2017-12-12T06:58:39.417Z,97254.05
2017-12-12T07:01:09.186Z,97263.20
2017-12-12T07:03:38.817Z,97261.09
2017-12-12T07:06:08.312Z,97270.02
2017-12-12T07:08:38.014Z,97274.66
2017-12-12T07:11:07.730Z,97282.45
2017-12-12T07:13:37.247Z,97290.43
2017-12-12T07:16:07.144Z,97286.37
2017-12-12T07:18:36.684Z,97301.64
2017-12-12T07:21:06.170Z,97323.86
2017-12-12T07:23:36.003Z,97318.12
2017-12-12T07:26:05.815Z,97327.25
2017-12-12T07:28:35.709Z,97331.80
2017-12-12T07:31:05.688Z,97350.79
2017-12-12T07:33:36.363Z,97354.35
2017-12-12T07:36:06.243Z,97360.08
2017-12-12T07:38:36.209Z,97351.47
2017-12-12T07:41:06.132Z,97354.34
2017-12-12T07:43:36.019Z,97371.59
2017-12-12T07:46:05.908Z,97370.28
2017-12-12T07:48:35.740Z,97375.28
2017-12-12T07:51:05.581Z,97385.33
2017-12-12T07:53:35.440Z,97382.92
2017-12-12T07:56:05.278Z,97396.55
2017-12-12T07:58:35.147Z,97411.21
2017-12-12T08:01:05.050Z,97408.41
2017-12-12T08:03:34.887Z,97418.19
2017-12-12T08:06:04.461Z,97417.87
2017-12-12T08:08:34.398Z,97418.14
2017-12-12T08:11:03.819Z,97427.55
2017-12-12T08:13:33.719Z,97441.09
2017-12-12T08:16:03.539Z,97450.61
2017-12-12T08:18:33.375Z,97458.18
2017-12-12T08:21:03.215Z,97461.20
2017-12-12T08:23:33.055Z,97486.67
2017-12-12T08:26:03.126Z,97499.48
2017-12-12T08:28:33.032Z,97494.56
2017-12-12T08:31:02.867Z,97501.35
2017-12-12T08:33:33.616Z,97505.95
2017-12-12T08:36:03.426Z,97506.54
2017-12-12T08:38:32.992Z,97504.81
2017-12-12T08:41:03.036Z,97511.33
2017-12-12T08:43:33.006Z,97518.36
2017-12-12T08:46:02.864Z,97523.61
2017-12-12T08:48:32.683Z,97535.00
2017-12-12T08:51:02.588Z,97544.85
2017-12-12T08:53:32.378Z,97537.77
2017-12-12T08:56:02.177Z,97555.71
2017-12-12T08:58:31.988Z,97547.55
2017-12-12T09:01:01.781Z,97539.66
2017-12-12T09:03:31.711Z,97547.77
2017-12-12T09:06:01.700Z,97569.70
2017-12-12T09:08:31.928Z,97586.23
2017-12-12T09:11:01.700Z,97592.94
2017-12-12T09:13:31.511Z,97597.03
2017-12-12T09:16:01.340Z,97601.24
2017-12-12T09:18:31.894Z,97617.69
2017-12-12T09:21:01.355Z,97627.24
2017-12-12T09:23:31.152Z,97642.51
2017-12-12T09:26:00.939Z,97657.71
2017-12-12T09:28:30.684Z,97655.72
2017-12-12T09:31:00.501Z,97657.16
2017-12-12T09:33:30.328Z,97665.77
2017-12-12T09:36:00.163Z,97672.84
2017-12-12T09:38:29.993Z,97665.41
2017-12-12T09:40:59.461Z,97666.34
2017-12-12T09:43:29.032Z,97675.24
2017-12-12T09:45:59.738Z,97683.51
2017-12-12T09:48:29.529Z,97683.47
2017-12-12T09:50:59.342Z,97685.13
2017-12-12T09:53:29.145Z,97689.21
2017-12-12T09:55:58.969Z,97691.14
2017-12-12T09:58:28.740Z,97699.28
2017-12-12T10:00:58.570Z,97699.14
2017-12-12T10:03:28.457Z,97697.67
2017-12-12T10:05:58.091Z,97697.99
2017-12-12T10:08:28.481Z,97705.70
2017-12-12T10:10:58.268Z,97736.19
2017-12-12T10:13:28.052Z,97735.74
2017-12-12T10:15:57.834Z,97794.44
2017-12-12T10:18:27.644Z,97787.59
2017-12-12T10:20:57.444Z,97794.38
2017-12-12T10:23:27.257Z,97793.58
2017-12-12T10:25:57.058Z,97799.39
2017-12-12T10:28:26.729Z,97800.31
2017-12-12T10:30:56.599Z,97809.95
2017-12-12T10:33:26.461Z,97819.45
2017-12-12T10:35:56.371Z,97817.55
2017-12-12T10:38:25.839Z,97815.52
2017-12-12T10:40:55.664Z,97825.86
2017-12-12T10:43:25.240Z,97823.75
2017-12-12T10:45:54.565Z,97828.57
2017-12-12T10:48:24.103Z,97833.38
2017-12-12T10:50:53.676Z,97830.17
2017-12-12T10:53:23.225Z,97837.45
2017-12-12T10:55:52.633Z,97849.28
2017-12-12T10:58:22.622Z,97858.27
2017-12-12T11:00:52.117Z,97870.45
2017-12-12T11:03:22.070Z,97871.51
2017-12-12T11:05:51.592Z,97871.88
2017-12-12T11:08:21.452Z,97871.98
2017-12-12T11:10:51.341Z,97877.60
2017-12-12T11:13:21.378Z,97875.63
2017-12-12T11:15:51.490Z,97892.51
2017-12-12T11:18:21.424Z,97897.22
2017-12-12T11:20:51.349Z,97905.64
2017-12-12T11:23:21.431Z,97900.64
2017-12-12T11:25:51.353Z,97905.41
2017-12-12T11:28:20.737Z,97900.88
2017-12-12T11:30:50.344Z,97891.66
2017-12-12T11:33:19.670Z,97900.31
2017-12-12T11:35:49.626Z,97908.36
2017-12-12T11:38:19.194Z,97909.64
2017-12-12T11:40:49.034Z,97911.63
2017-12-12T11:43:18.968Z,97914.69
2017-12-12T11:45:48.916Z,97914.05
2017-12-12T11:48:18.835Z,97925.39
2017-12-12T11:50:48.757Z,97928.63
2017-12-12T11:53:19.069Z,97934.16
2017-12-12T11:55:49.541Z,97933.09
2017-12-12T11:58:19.506Z,97935.37
2017-12-12T12:00:49.661Z,97930.32
2017-12-12T12:03:19.159Z,97941.69
2017-12-12T12:05:49.131Z,97953.94
2017-12-12T12:08:18.983Z,97958.92
2017-12-12T12:10:48.466Z,97960.01
2017-12-12T12:13:17.776Z,97969.59
2017-12-12T12:15:47.362Z,97967.34
2017-12-12T12:18:17.272Z,97971.14
2017-12-12T12:20:47.055Z,97971.50
2017-12-12T12:23:16.645Z,97975.64
2017-12-12T12:25:46.267Z,97967.88
2017-12-12T12:28:15.841Z,97971.77
2017-12-12T12:30:45.625Z,97972.30
2017-12-12T12:33:15.436Z,97975.45
2017-12-12T12:35:45.302Z,97980.94
2017-12-12T12:38:14.925Z,97980.13
2017-12-12T12:40:45.553Z,97987.50
2017-12-12T12:43:14.831Z,97994.16
2017-12-12T12:45:44.673Z,98003.37
2017-12-12T12:48:14.785Z,97998.69
2017-12-12T12:50:44.285Z,97999.05
2017-12-12T12:53:14.126Z,98008.49
2017-12-12T12:55:43.955Z,98010.75
2017-12-12T12:58:14.138Z,98015.03
2017-12-12T13:00:43.810Z,98016.97
2017-12-12T13:03:13.694Z,98025.92
2017-12-12T13:05:43.594Z,98032.59
2017-12-12T13:08:13.445Z,98035.25
2017-12-12T13:10:43.301Z,98035.61
2017-12-12T13:13:13.394Z,98032.38
2017-12-12T13:15:43.479Z,98036.20
2017-12-12T13:18:13.827Z,98055.29
2017-12-12T13:20:43.368Z,98050.66
2017-12-12T13:23:13.203Z,98063.70
2017-12-12T13:25:43.199Z,98064.77
2017-12-12T13:28:13.073Z,98067.72
2017-12-12T13:30:42.908Z,98076.12
2017-12-12T13:33:12.728Z,98073.34
2017-12-12T13:35:42.245Z,98067.39
2017-12-12T13:38:12.304Z,98077.66
2017-12-12T13:40:42.164Z,98086.38
2017-12-12T13:43:12.027Z,98086.02
2017-12-12T13:45:42.106Z,98084.92
2017-12-12T13:48:11.747Z,98087.95
2017-12-12T13:50:41.329Z,98084.11
2017-12-12T13:53:11.414Z,98094.98
2017-12-12T13:55:41.242Z,98105.55
2017-12-12T13:58:11.061Z,98094.25
2017-12-12T14:00:40.861Z,98110.39
2017-12-12T14:03:10.673Z,98120.86
2017-12-12T14:05:40.543Z,98111.30
2017-12-12T14:08:10.377Z,98113.66
2017-12-12T14:10:40.346Z,98113.16
2017-12-12T14:13:10.338Z,98117.99
2017-12-12T14:15:40.305Z,98116.29
2017-12-12T14:18:10.368Z,98123.27
2017-12-12T14:20:40.300Z,98128.76
2017-12-12T14:23:10.239Z,98132.80
2017-12-12T14:25:40.059Z,98129.83
2017-12-12T14:28:09.869Z,98140.80
2017-12-12T14:30:39.748Z,98138.71
2017-12-12T14:33:09.552Z,98142.80
2017-12-12T14:35:39.354Z,98149.41
2017-12-12T14:38:09.164Z,98158.33
2017-12-12T14:40:39.008Z,98165.84
2017-12-12T14:43:08.889Z,98169.23
2017-12-12T14:45:38.728Z,98175.82
2017-12-12T14:48:09.331Z,98183.48
2017-12-12T14:50:41.026Z,98198.38
2017-12-12T14:53:11.368Z,98187.34
2017-12-12T14:55:41.186Z,98188.56
2017-12-12T14:58:10.989Z,98197.82
2017-12-12T15:00:41.663Z,98204.52
2017-12-12T15:03:12.293Z,98203.00
2017-12-12T15:05:42.884Z,98206.61
2017-12-12T15:08:12.771Z,98209.59
2017-12-12T15:10:42.845Z,98209.92
2017-12-12T15:13:12.850Z,98220.27
2017-12-12T15:15:42.662Z,98228.19
2017-12-12T15:18:12.927Z,98231.98
2017-12-12T15:20:42.830Z,98233.52
2017-12-12T15:23:12.661Z,98241.13
2017-12-12T15:25:42.462Z,98240.41
2017-12-12T15:28:11.983Z,98246.17
2017-12-12T15:30:41.794Z,98246.78
2017-12-12T15:33:12.031Z,98251.52
2017-12-12T15:35:41.710Z,98257.17
2017-12-12T15:38:15.220Z,98259.50
2017-12-12T15:40:45.195Z,98258.30
2017-12-12T15:43:15.100Z,98262.75
2017-12-12T15:45:44.939Z,98260.97
2017-12-12T15:48:14.781Z,98261.63
2017-12-12T15:50:44.257Z,98269.74
2017-12-12T15:53:13.708Z,98279.88
2017-12-12T15:55:43.514Z,98280.34
2017-12-12T15:58:14.082Z,98279.81
2017-12-12T16:00:43.683Z,98289.61
2017-12-12T16:03:13.498Z,98293.52
2017-12-12T16:05:43.324Z,98303.36
2017-12-12T16:08:13.133Z,98306.77
2017-12-12T16:10:42.950Z,98310.64
2017-12-12T16:13:16.610Z,98326.14
2017-12-12T16:15:46.438Z,98327.31
2017-12-12T16:18:16.220Z,98325.53
2017-12-12T16:20:46.055Z,98327.98
2017-12-12T16:23:15.867Z,98331.07
2017-12-12T16:25:45.711Z,98342.33
2017-12-12T16:28:15.537Z,98336.38
2017-12-12T16:30:45.926Z,98345.55
2017-12-12T16:33:15.738Z,98343.80
2017-12-12T16:35:45.535Z,98352.28
2017-12-12T16:38:14.985Z,98350.03
2017-12-12T16:40:44.496Z,98355.15
2017-12-12T16:43:14.293Z,98354.76
2017-12-12T16:45:43.920Z,98352.77
2017-12-12T16:48:13.631Z,98363.36
2017-12-12T16:50:46.333Z,98368.45
2017-12-12T16:53:20.323Z,98370.94
2017-12-12T16:55:53.100Z,98371.88
2017-12-12T16:58:23.078Z,98380.68
2017-12-12T17:00:53.491Z,98391.13
2017-12-12T17:03:23.405Z,98388.77
2017-12-12T17:05:53.969Z,98389.50
2017-12-12T17:08:23.775Z,98395.78
2017-12-12T17:10:53.836Z,98397.00
2017-12-12T17:13:23.774Z,98403.88
2017-12-12T17:15:53.717Z,98403.16
2017-12-12T17:18:23.526Z,98405.52
2017-12-12T17:20:53.392Z,98405.42
2017-12-12T17:23:23.281Z,98425.48
2017-12-12T17:25:53.333Z,98430.19
2017-12-12T17:28:23.191Z,98433.45
2017-12-12T17:30:53.370Z,98436.42
2017-12-12T17:33:24.031Z,98438.87
2017-12-12T17:35:55.275Z,98444.20
2017-12-12T17:38:25.087Z,98448.71
2017-12-12T17:40:55.128Z,98455.06
2017-12-12T17:43:25.162Z,98455.17
2017-12-12T17:45:55.046Z,98455.47
2017-12-12T17:56:35.115Z,98481.36
2017-12-12T17:59:07.135Z,98479.55
2017-12-12T18:01:36.969Z,98486.51
2017-12-12T18:04:06.875Z,98487.43
2017-12-12T18:06:36.897Z,98492.23
2017-12-12T18:09:06.690Z,98492.52
2017-12-12T18:11:36.840Z,98496.31
2017-12-12T18:14:06.700Z,98496.63
2017-12-12T18:16:36.739Z,98496.41
2017-12-12T18:19:07.169Z,98500.81
2017-12-12T18:21:37.042Z,98497.23
2017-12-12T18:24:06.935Z,98506.45
2017-12-12T18:26:36.724Z,98509.43
2017-12-12T18:29:06.554Z,98510.03
2017-12-12T18:31:36.373Z,98514.63
2017-12-12T18:34:06.442Z,98515.03
2017-12-12T18:36:36.528Z,98515.86
2017-12-12T18:39:06.323Z,98507.37
2017-12-12T18:41:36.012Z,98517.19
2017-12-12T18:44:06.036Z,98515.73
2017-12-12T18:46:36.056Z,98513.29
2017-12-12T18:49:05.915Z,98524.94
2017-12-12T18:51:40.112Z,98522.37
2017-12-12T18:54:10.018Z,98529.75
2017-12-12T18:56:39.838Z,98534.95
2017-12-12T18:59:13.920Z,98538.32
2017-12-12T19:01:43.820Z,98543.01
2017-12-12T19:04:20.044Z,98538.41
2017-12-12T19:06:50.902Z,98534.91
2017-12-12T19:09:20.772Z,98543.39
2017-12-12T19:11:50.321Z,98545.91
2017-12-12T19:14:20.220Z,98545.16
2017-12-12T19:16:50.035Z,98544.34
2017-12-12T19:19:19.830Z,98546.66
2017-12-12T19:21:49.555Z,98554.09
2017-12-12T19:24:19.363Z,98548.20
2017-12-12T19:26:49.399Z,98549.20
2017-12-12T19:29:18.982Z,98544.31
2017-12-12T19:31:48.800Z,98559.02
2017-12-12T19:34:18.665Z,98556.83
2017-12-12T19:36:49.507Z,98554.43
2017-12-12T19:39:19.544Z,98555.90
2017-12-12T19:41:49.167Z,98551.77
2017-12-12T19:44:19.815Z,98558.31
2017-12-12T19:46:51.509Z,98558.77
2017-12-12T19:49:22.053Z,98563.24
2017-12-12T20:01:36.750Z,98551.92
2017-12-12T20:04:07.564Z,98551.41
2017-12-12T20:06:40.632Z,98557.86
2017-12-12T20:09:10.593Z,98553.03
2017-12-12T20:11:40.392Z,98557.27
2017-12-12T20:14:10.600Z,98558.86
2017-12-12T20:16:49.464Z,98561.05
2017-12-12T20:19:20.515Z,98566.30
2017-12-12T20:21:53.325Z,98565.63
2017-12-12T20:24:23.161Z,98570.58
2017-12-12T20:26:58.499Z,98563.80
2017-12-12T20:29:28.574Z,98552.52
2017-12-12T20:31:58.485Z,98552.70
2017-12-12T20:37:02.532Z,98557.62
2017-12-12T20:39:37.102Z,98560.48
2017-12-12T20:42:07.182Z,98568.24
2017-12-12T20:44:37.097Z,98574.81
2017-12-12T20:47:07.107Z,98575.71
2017-12-12T20:49:37.001Z,98577.13
2017-12-12T20:52:06.667Z,98589.78
2017-12-12T20:54:36.630Z,98594.12
2017-12-12T20:59:47.763Z,98592.08
2017-12-12T21:02:18.535Z,98603.22
2017-12-12T21:04:50.360Z,98595.88
2017-12-12T21:12:47.958Z,98601.70
2017-12-12T21:15:18.513Z,98601.06
2017-12-12T21:17:49.174Z,98597.20
2017-12-12T21:20:19.194Z,98598.16
2017-12-12T21:22:48.995Z,98602.48
2017-12-12T21:25:19.422Z,98607.92
2017-12-12T21:36:46.255Z,98639.83
2017-12-12T21:39:18.556Z,98640.05
2017-12-12T21:41:50.890Z,98646.16
2017-12-12T21:44:23.081Z,98640.11
2017-12-12T21:46:54.876Z,98627.06
2017-12-12T21:49:26.216Z,98628.23
2017-12-12T21:51:57.874Z,98647.95
2017-12-12T21:54:32.143Z,98648.38
2017-12-12T21:57:05.677Z,98645.33
2017-12-12T21:59:38.153Z,98640.34
2017-12-12T22:02:10.497Z,98640.19
2017-12-12T22:04:42.578Z,98641.86
2017-12-12T22:07:13.957Z,98642.44
2017-12-12T22:09:44.876Z,98646.71
2017-12-12T22:12:15.986Z,98647.81
2017-12-12T22:14:47.577Z,98644.31
2017-12-12T22:17:18.395Z,98644.24
2017-12-12T22:19:48.368Z,98652.69
2017-12-12T22:22:18.293Z,98655.41
2017-12-12T22:24:48.464Z,98656.36
2017-12-12T22:27:18.895Z,98656.84
2017-12-12T22:29:48.570Z,98662.66
2017-12-12T22:32:18.918Z,98664.38
2017-12-12T22:34:48.906Z,98659.26
2017-12-12T22:37:18.776Z,98661.84
2017-12-12T22:39:48.694Z,98669.90
2017-12-12T22:42:18.485Z,98679.30
2017-12-12T22:44:48.484Z,98678.62
2017-12-12T22:47:18.398Z,98676.30
2017-12-12T22:49:48.216Z,98680.19
2017-12-12T22:52:18.069Z,98683.14
2017-12-12T22:54:47.930Z,98680.87
2017-12-12T22:57:17.861Z,98674.61
2017-12-12T22:59:47.737Z,98683.78
2017-12-12T23:02:17.257Z,98682.87
2017-12-12T23:04:47.148Z,98674.97
2017-12-12T23:07:17.004Z,98675.33
2017-12-12T23:09:46.897Z,98682.30
2017-12-12T23:12:17.091Z,98678.98
2017-12-12T23:14:47.163Z,98683.70
2017-12-12T23:17:17.072Z,98699.52
2017-12-12T23:19:47.040Z,98693.92
2017-12-12T23:22:16.939Z,98680.68
2017-12-12T23:24:46.857Z,98683.91
2017-12-12T23:27:16.412Z,98667.30
2017-12-12T23:29:45.927Z,98666.62
2017-12-12T23:32:15.509Z,98678.24
2017-12-12T23:34:45.586Z,98666.19
2017-12-12T23:37:16.052Z,98662.52
2017-12-12T23:39:45.973Z,98660.16
2017-12-12T23:42:15.828Z,98662.05
2017-12-12T23:44:45.754Z,98662.41
2017-12-12T23:47:15.637Z,98666.23
2017-12-12T23:49:45.475Z,98677.21
2017-12-12T23:52:22.868Z,98668.25
2017-12-12T23:54:54.734Z,98677.08
2017-12-12T23:57:26.129Z,98681.87
2017-12-12T23:59:56.029Z,98688.34
